createdAt,value
2022-11-09T00:01:43.124Z,100.00
2022-11-09T00:04:10.719Z,100.00
2022-11-09T00:06:38.262Z,100.00
2022-11-09T00:09:08.157Z,100.00
2022-11-09T00:11:36.620Z,100.00
2022-11-09T00:14:03.360Z,100.00
2022-11-09T00:16:30.006Z,100.00
2022-11-09T00:18:56.689Z,100.00
2022-11-09T00:21:24.884Z,100.00
2022-11-09T00:23:52.243Z,100.00
2022-11-09T00:26:20.253Z,100.00
2022-11-09T00:28:47.268Z,100.00
2022-11-09T00:31:19.639Z,100.00
2022-11-09T00:33:53.820Z,100.00
2022-11-09T00:36:21.579Z,100.00
2022-11-09T00:38:50.714Z,100.00
2022-11-09T00:41:17.720Z,100.00
2022-11-09T00:43:44.532Z,100.00
2022-11-09T00:46:11.585Z,100.00
2022-11-09T00:48:38.729Z,100.00
2022-11-09T00:51:05.788Z,100.00
2022-11-09T00:53:32.876Z,100.00
2022-11-09T00:56:04.272Z,100.00
2022-11-09T00:58:33.023Z,100.00
2022-11-09T01:01:05.331Z,100.00
2022-11-09T01:03:31.982Z,100.00
2022-11-09T01:06:02.200Z,100.00
2022-11-09T01:08:29.120Z,100.00
2022-11-09T01:10:55.754Z,100.00
2022-11-09T01:13:22.605Z,100.00
2022-11-09T01:15:52.658Z,100.00
2022-11-09T01:18:21.192Z,100.00
2022-11-09T01:20:49.492Z,100.00
2022-11-09T01:23:19.122Z,100.00
2022-11-09T01:25:46.067Z,100.00
2022-11-09T01:28:13.320Z,100.00
2022-11-09T01:30:42.527Z,100.00
2022-11-09T01:33:11.776Z,100.00
2022-11-09T01:35:40.650Z,100.00
2022-11-09T01:38:09.116Z,100.00
2022-11-09T01:40:37.723Z,100.00
2022-11-09T01:43:19.108Z,100.00
2022-11-09T01:45:53.337Z,100.00
2022-11-09T01:48:46.456Z,100.00
2022-11-09T01:51:24.289Z,100.00
2022-11-09T01:53:57.401Z,100.00
2022-11-09T01:56:24.993Z,100.00
2022-11-09T01:58:59.340Z,100.00
2022-11-09T02:01:26.769Z,100.00
2022-11-09T02:04:04.416Z,100.00
2022-11-09T02:06:32.498Z,100.00
2022-11-09T02:09:10.150Z,100.00
2022-11-09T02:11:38.179Z,100.00
2022-11-09T02:14:06.976Z,100.00
2022-11-09T02:16:34.424Z,100.00
2022-11-09T02:19:01.159Z,100.00
2022-11-09T02:21:29.998Z,100.00
2022-11-09T02:23:57.560Z,100.00
2022-11-09T02:26:30.291Z,100.00
2022-11-09T02:28:58.762Z,100.00
2022-11-09T02:31:31.184Z,100.00
2022-11-09T02:34:07.018Z,100.00
2022-11-09T02:36:34.091Z,100.00
2022-11-09T02:39:00.991Z,100.00
2022-11-09T02:41:29.931Z,100.00
2022-11-09T02:43:56.842Z,100.00
2022-11-09T02:46:33.554Z,100.00
2022-11-09T02:49:01.465Z,100.00
2022-11-09T02:51:28.292Z,100.00
2022-11-09T02:53:55.227Z,100.00
2022-11-09T02:56:21.981Z,100.00
2022-11-09T02:58:48.693Z,100.00
2022-11-09T03:01:15.445Z,100.00
2022-11-09T03:03:42.177Z,100.00
2022-11-09T03:06:08.877Z,100.00
2022-11-09T03:08:35.631Z,100.00
2022-11-09T03:11:02.907Z,100.00
2022-11-09T03:13:29.545Z,100.00
2022-11-09T03:15:56.364Z,100.00
2022-11-09T03:18:22.976Z,100.00
2022-11-09T03:20:49.624Z,100.00
2022-11-09T03:23:16.340Z,100.00
2022-11-09T03:25:43.059Z,100.00
2022-11-09T03:28:10.173Z,100.00
2022-11-09T03:30:36.855Z,100.00
2022-11-09T03:33:10.368Z,100.00
2022-11-09T03:35:41.053Z,100.00
2022-11-09T03:38:07.726Z,100.00
2022-11-09T03:40:34.432Z,100.00
2022-11-09T03:43:01.169Z,100.00
2022-11-09T03:45:28.184Z,100.00
2022-11-09T03:48:00.193Z,100.00
2022-11-09T03:50:29.050Z,100.00
2022-11-09T03:52:56.812Z,100.00
2022-11-09T03:55:23.500Z,100.00
2022-11-09T03:57:50.394Z,100.00
2022-11-09T04:00:19.910Z,100.00
2022-11-09T04:02:46.754Z,100.00
2022-11-09T04:05:13.979Z,100.00
2022-11-09T04:07:40.985Z,100.00
2022-11-09T04:10:07.985Z,100.00
2022-11-09T04:12:34.664Z,100.00
2022-11-09T04:15:01.343Z,100.00
2022-11-09T04:17:27.998Z,100.00
2022-11-09T04:19:54.666Z,100.00
2022-11-09T04:22:21.268Z,100.00
2022-11-09T04:24:47.919Z,100.00
2022-11-09T04:27:14.588Z,100.00
2022-11-09T04:29:41.214Z,100.00
2022-11-09T04:32:07.929Z,100.00
2022-11-09T04:34:34.584Z,100.00
2022-11-09T04:37:01.545Z,100.00
2022-11-09T04:39:28.180Z,100.00
2022-11-09T04:41:54.891Z,100.00
2022-11-09T04:44:21.532Z,100.00
2022-11-09T04:46:48.168Z,100.00
2022-11-09T04:49:14.800Z,100.00
2022-11-09T04:51:41.433Z,100.00
2022-11-09T04:54:08.079Z,100.00
2022-11-09T04:56:34.873Z,100.00
2022-11-09T04:59:01.519Z,100.00
2022-11-09T05:01:28.173Z,100.00
2022-11-09T05:03:55.003Z,100.00
2022-11-09T05:06:34.152Z,100.00
2022-11-09T05:09:04.680Z,100.00
2022-11-09T05:11:32.991Z,100.00
2022-11-09T05:13:59.953Z,100.00
2022-11-09T05:16:28.231Z,100.00
2022-11-09T05:18:55.204Z,100.00
2022-11-09T05:21:21.829Z,100.00
2022-11-09T05:24:01.056Z,100.00
2022-11-09T05:26:29.118Z,100.00
2022-11-09T05:28:55.912Z,100.00
2022-11-09T05:31:22.631Z,100.00
2022-11-09T05:33:51.241Z,100.00
2022-11-09T05:36:18.695Z,100.00
2022-11-09T05:38:45.820Z,100.00
2022-11-09T05:41:12.977Z,100.00
2022-11-09T05:43:39.603Z,100.00
2022-11-09T05:46:07.038Z,100.00
2022-11-09T05:48:33.761Z,100.00
2022-11-09T05:51:02.455Z,100.00
2022-11-09T05:53:29.611Z,100.00
2022-11-09T05:55:56.465Z,100.00
2022-11-09T05:58:23.155Z,100.00
2022-11-09T06:00:49.819Z,100.00
2022-11-09T06:03:16.538Z,100.00
2022-11-09T06:05:43.649Z,100.00
2022-11-09T06:08:15.409Z,100.00
2022-11-09T06:10:42.889Z,100.00
2022-11-09T06:13:10.166Z,100.00
2022-11-09T06:15:36.887Z,100.00
2022-11-09T06:18:03.553Z,100.00
2022-11-09T06:20:30.291Z,100.00
2022-11-09T06:23:02.710Z,100.00
2022-11-09T06:25:31.754Z,100.00
2022-11-09T06:27:58.564Z,100.00
2022-11-09T06:30:25.306Z,100.00
2022-11-09T06:32:51.965Z,100.00
2022-11-09T06:35:18.612Z,100.00
2022-11-09T06:37:45.270Z,100.00
2022-11-09T06:40:12.936Z,100.00
2022-11-09T06:42:39.620Z,100.00
2022-11-09T06:45:06.768Z,100.00
2022-11-09T06:47:33.423Z,100.00
2022-11-09T06:50:00.119Z,100.00
2022-11-09T06:52:26.808Z,100.00
2022-11-09T06:54:53.444Z,100.00
2022-11-09T06:57:20.061Z,100.00
2022-11-09T06:59:46.713Z,100.00
2022-11-09T07:02:20.211Z,100.00
2022-11-09T07:04:46.891Z,100.00
2022-11-09T07:07:13.676Z,100.00
2022-11-09T07:09:40.425Z,100.00
2022-11-09T07:12:07.216Z,100.00
2022-11-09T07:14:33.855Z,100.00
2022-11-09T07:17:00.573Z,100.00
2022-11-09T07:19:28.986Z,100.00
2022-11-09T07:21:56.899Z,100.00
2022-11-09T07:24:24.040Z,100.00
2022-11-09T07:26:51.094Z,100.00
2022-11-09T07:29:17.752Z,100.00
2022-11-09T07:31:44.399Z,100.00
2022-11-09T07:34:11.011Z,100.00
2022-11-09T07:36:37.743Z,100.00
2022-11-09T07:39:05.403Z,100.00
2022-11-09T07:41:34.667Z,100.00
2022-11-09T07:44:01.730Z,100.00
2022-11-09T07:46:28.373Z,100.00
2022-11-09T07:48:55.048Z,100.00
2022-11-09T07:51:21.772Z,100.00
2022-11-09T07:53:48.611Z,100.00
2022-11-09T07:56:15.910Z,100.00
2022-11-09T07:58:42.606Z,100.00
2022-11-09T08:01:10.601Z,100.00
2022-11-09T08:03:37.452Z,100.00
2022-11-09T08:06:04.361Z,100.00
2022-11-09T08:08:31.182Z,100.00
2022-11-09T08:10:58.417Z,100.00
2022-11-09T08:13:25.710Z,100.00
2022-11-09T08:15:52.408Z,100.00
2022-11-09T08:18:21.317Z,100.00
2022-11-09T08:20:48.753Z,100.00
2022-11-09T08:23:17.844Z,100.00
2022-11-09T08:25:45.594Z,100.00
2022-11-09T08:28:15.056Z,100.00
2022-11-09T08:30:43.220Z,100.00
2022-11-09T08:33:11.192Z,100.00
2022-11-09T08:35:38.669Z,100.00
2022-11-09T08:38:06.383Z,100.00
2022-11-09T08:40:33.560Z,100.00
2022-11-09T08:43:06.410Z,100.00
2022-11-09T08:45:35.496Z,100.00
2022-11-09T08:48:03.186Z,100.00
2022-11-09T08:50:32.313Z,100.00
2022-11-09T08:52:59.197Z,100.00
2022-11-09T08:55:26.175Z,100.00
2022-11-09T08:57:58.281Z,100.00
2022-11-09T09:00:25.592Z,100.00
2022-11-09T09:02:52.310Z,100.00
2022-11-09T09:05:19.725Z,100.00
2022-11-09T09:07:46.650Z,100.00
2022-11-09T09:10:15.484Z,100.00
2022-11-09T09:12:42.270Z,100.00
2022-11-09T09:15:09.382Z,100.00
2022-11-09T09:17:36.141Z,100.00
2022-11-09T09:20:03.964Z,100.00
2022-11-09T09:22:30.626Z,100.00
2022-11-09T09:24:57.351Z,100.00
2022-11-09T09:27:23.972Z,100.00
2022-11-09T09:29:50.699Z,100.00
2022-11-09T09:32:17.369Z,100.00
2022-11-09T09:34:43.997Z,100.00
2022-11-09T09:37:11.384Z,100.00
2022-11-09T09:39:38.037Z,100.00
2022-11-09T09:42:16.390Z,100.00
2022-11-09T09:44:53.304Z,100.00
2022-11-09T09:47:42.758Z,100.00
2022-11-09T09:50:23.128Z,100.00
2022-11-09T09:53:22.792Z,100.00
2022-11-09T09:55:53.245Z,100.00
2022-11-09T09:58:28.593Z,100.00
2022-11-09T10:01:00.524Z,100.00
2022-11-09T10:03:27.205Z,100.00
2022-11-09T10:06:23.029Z,100.00
2022-11-09T10:09:08.270Z,100.00
2022-11-09T10:11:40.648Z,100.00
2022-11-09T10:14:16.606Z,100.00
2022-11-09T10:17:18.753Z,100.00
2022-11-09T10:20:00.302Z,100.00
2022-11-09T10:22:40.611Z,100.00
2022-11-09T10:25:27.604Z,100.00
2022-11-09T10:28:13.531Z,100.00
2022-11-09T10:30:40.544Z,100.00
2022-11-09T10:33:16.635Z,100.00
2022-11-09T10:35:49.009Z,100.00
2022-11-09T10:38:22.171Z,100.00
2022-11-09T10:41:11.469Z,100.00
2022-11-09T10:43:38.103Z,100.00
2022-11-09T10:46:07.296Z,100.00
2022-11-09T10:48:37.076Z,100.00
2022-11-09T10:51:04.171Z,100.00
2022-11-09T10:53:33.588Z,100.00
2022-11-09T10:57:05.127Z,100.00
2022-11-09T10:59:48.505Z,100.00
2022-11-09T11:02:27.966Z,100.00
2022-11-09T11:05:06.753Z,100.00
2022-11-09T11:07:35.696Z,100.00
2022-11-09T11:10:17.742Z,100.00
2022-11-09T11:12:47.096Z,100.00
2022-11-09T11:15:32.761Z,100.00
2022-11-09T11:18:05.442Z,100.00
2022-11-09T11:20:37.532Z,100.00
2022-11-09T11:23:13.163Z,100.00
2022-11-09T11:25:56.772Z,100.00
2022-11-09T11:28:44.889Z,100.00
2022-11-09T11:31:17.124Z,100.00
2022-11-09T11:33:44.285Z,100.00
2022-11-09T11:36:31.955Z,100.00
2022-11-09T11:39:23.478Z,100.00
2022-11-09T11:42:01.976Z,100.00
2022-11-09T11:45:18.511Z,100.00
2022-11-09T11:48:10.371Z,100.00
2022-11-09T11:51:02.039Z,100.00
2022-11-09T11:53:48.318Z,92.23
2022-11-09T11:56:15.364Z,88.87
2022-11-09T11:59:11.550Z,90.30
2022-11-09T12:01:56.456Z,82.85
2022-11-09T12:05:00.674Z,80.77
2022-11-09T12:07:56.919Z,79.44
2022-11-09T12:11:12.524Z,80.86
2022-11-09T12:14:30.289Z,81.13
2022-11-09T12:17:06.511Z,75.36
2022-11-09T12:19:41.816Z,77.62
2022-11-09T12:22:33.103Z,78.97
2022-11-09T12:25:16.988Z,72.23
2022-11-09T12:27:58.133Z,68.26
2022-11-09T12:30:37.601Z,70.10
2022-11-09T12:33:33.705Z,71.30
2022-11-09T12:36:35.559Z,68.41
2022-11-09T12:39:25.956Z,69.54
2022-11-09T12:41:56.102Z,75.71
2022-11-09T12:44:27.933Z,76.54
2022-11-09T12:47:01.713Z,77.98
2022-11-09T12:49:36.372Z,76.43
2022-11-09T12:52:06.263Z,78.84
2022-11-09T12:54:39.596Z,85.75
2022-11-09T12:57:10.202Z,91.63
2022-11-09T12:59:48.412Z,100.00
2022-11-09T13:02:53.058Z,100.00
2022-11-09T13:05:29.396Z,100.00
2022-11-09T13:08:00.347Z,100.00
2022-11-09T13:10:40.714Z,100.00
2022-11-09T13:13:16.184Z,100.00
2022-11-09T13:16:06.384Z,100.00
2022-11-09T13:18:35.733Z,100.00
2022-11-09T13:21:21.072Z,100.00
2022-11-09T13:24:04.077Z,100.00
2022-11-09T13:26:32.531Z,100.00
2022-11-09T13:29:08.415Z,100.00
2022-11-09T13:32:00.421Z,100.00
2022-11-09T13:34:43.560Z,100.00
2022-11-09T13:37:41.166Z,100.00
2022-11-09T13:40:32.716Z,100.00
2022-11-09T13:43:21.911Z,100.00
2022-11-09T13:45:53.672Z,100.00
2022-11-09T13:48:38.259Z,100.00
2022-11-09T13:51:11.813Z,100.00
2022-11-09T13:53:38.572Z,100.00
2022-11-09T13:56:30.144Z,100.00
2022-11-09T13:59:04.581Z,100.00
2022-11-09T14:01:44.968Z,100.00
2022-11-09T14:04:26.797Z,100.00
2022-11-09T14:07:02.075Z,100.00
2022-11-09T14:09:47.978Z,100.00
2022-11-09T14:12:23.847Z,100.00
2022-11-09T14:15:08.811Z,100.00
2022-11-09T14:17:55.324Z,100.00
2022-11-09T14:20:34.691Z,100.00
2022-11-09T14:23:01.343Z,100.00
2022-11-09T14:25:31.033Z,100.00
2022-11-09T14:27:57.768Z,100.00
2022-11-09T14:30:28.094Z,100.00
2022-11-09T14:32:56.347Z,100.00
2022-11-09T14:35:26.099Z,100.00
2022-11-09T14:37:54.750Z,100.00
2022-11-09T14:40:28.171Z,100.00
2022-11-09T14:43:02.431Z,100.00
2022-11-09T14:45:29.524Z,100.00
2022-11-09T14:48:00.595Z,100.00
2022-11-09T14:50:36.843Z,100.00
2022-11-09T14:53:05.798Z,100.00
2022-11-09T14:55:34.444Z,100.00
2022-11-09T14:58:02.721Z,100.00
2022-11-09T15:00:33.317Z,100.00
2022-11-09T15:03:20.951Z,100.00
2022-11-09T15:05:48.006Z,100.00
2022-11-09T15:08:19.899Z,100.00
2022-11-09T15:10:54.323Z,100.00
2022-11-09T15:13:41.673Z,100.00
2022-11-09T15:16:08.734Z,100.00
2022-11-09T15:18:42.199Z,100.00
2022-11-09T15:21:33.705Z,100.00
2022-11-09T15:24:09.327Z,100.00
2022-11-09T15:26:37.803Z,100.00
2022-11-09T15:29:34.444Z,100.00
2022-11-09T15:32:17.449Z,100.00
2022-11-09T15:34:53.072Z,100.00
2022-11-09T15:37:22.251Z,100.00
2022-11-09T15:39:49.017Z,100.00
2022-11-09T15:42:16.544Z,100.00
2022-11-09T15:44:43.556Z,100.00
2022-11-09T15:47:22.809Z,100.00
2022-11-09T15:49:49.597Z,100.00
2022-11-09T15:52:16.360Z,100.00
2022-11-09T15:54:46.742Z,100.00
2022-11-09T15:57:19.439Z,100.00
2022-11-09T15:59:47.397Z,100.00
2022-11-09T16:02:14.589Z,100.00
2022-11-09T16:04:41.904Z,100.00
2022-11-09T16:07:14.478Z,100.00
2022-11-09T16:09:41.833Z,100.00
2022-11-09T16:12:08.926Z,100.00
2022-11-09T16:14:35.991Z,100.00
2022-11-09T16:17:02.876Z,100.00
2022-11-09T16:19:29.578Z,100.00
2022-11-09T16:21:56.271Z,100.00
2022-11-09T16:24:23.184Z,100.00
2022-11-09T16:26:50.362Z,100.00
2022-11-09T16:29:17.041Z,100.00
2022-11-09T16:31:52.111Z,100.00
2022-11-09T16:34:19.286Z,100.00
2022-11-09T16:36:51.066Z,100.00
2022-11-09T16:39:20.949Z,100.00
2022-11-09T16:41:50.199Z,100.00
2022-11-09T16:44:20.276Z,100.00
2022-11-09T16:46:48.192Z,100.00
2022-11-09T16:49:15.311Z,100.00
2022-11-09T16:51:42.106Z,100.00
2022-11-09T16:54:08.754Z,100.00
2022-11-09T16:56:35.491Z,100.00
2022-11-09T16:59:02.164Z,100.00
2022-11-09T17:01:28.831Z,100.00
2022-11-09T17:03:56.863Z,100.00
2022-11-09T17:06:23.593Z,100.00
2022-11-09T17:08:50.942Z,100.00
2022-11-09T17:11:17.729Z,100.00
2022-11-09T17:13:44.492Z,100.00
2022-11-09T17:16:12.947Z,100.00
2022-11-09T17:18:40.674Z,100.00
2022-11-09T17:21:12.299Z,100.00
2022-11-09T17:23:41.180Z,100.00
2022-11-09T17:26:08.861Z,100.00
2022-11-09T17:28:41.505Z,100.00
2022-11-09T17:31:21.478Z,100.00
2022-11-09T17:33:48.153Z,100.00
2022-11-09T17:36:29.680Z,100.00
2022-11-09T17:39:05.712Z,100.00
2022-11-09T17:41:32.614Z,100.00
2022-11-09T17:44:02.516Z,100.00
2022-11-09T17:46:29.376Z,100.00
2022-11-09T17:48:56.060Z,100.00
2022-11-09T17:51:25.160Z,100.00
2022-11-09T17:53:51.946Z,100.00
2022-11-09T17:56:18.777Z,100.00
2022-11-09T17:58:46.309Z,100.00
2022-11-09T18:01:20.037Z,100.00
2022-11-09T18:03:47.287Z,100.00
2022-11-09T18:06:17.484Z,100.00
2022-11-09T18:08:45.238Z,100.00
2022-11-09T18:11:13.288Z,100.00
2022-11-09T18:13:40.889Z,100.00
2022-11-09T18:16:13.312Z,100.00
2022-11-09T18:18:44.132Z,100.00
2022-11-09T18:21:13.997Z,100.00
2022-11-09T18:23:40.605Z,100.00
2022-11-09T18:26:07.705Z,100.00
2022-11-09T18:28:35.412Z,100.00
2022-11-09T18:31:04.552Z,100.00
2022-11-09T18:33:31.608Z,100.00
2022-11-09T18:36:04.354Z,100.00
2022-11-09T18:38:31.509Z,100.00
2022-11-09T18:41:04.002Z,100.00
2022-11-09T18:43:31.168Z,100.00
2022-11-09T18:46:03.502Z,100.00
2022-11-09T18:48:31.127Z,100.00
2022-11-09T18:50:59.648Z,100.00
2022-11-09T18:53:34.234Z,100.00
2022-11-09T18:56:06.583Z,100.00
2022-11-09T18:58:34.838Z,100.00
2022-11-09T19:01:06.727Z,100.00
2022-11-09T19:03:33.965Z,100.00
2022-11-09T19:06:06.429Z,100.00
2022-11-09T19:08:52.041Z,100.00
2022-11-09T19:11:18.960Z,100.00
2022-11-09T19:13:45.618Z,100.00
2022-11-09T19:16:14.031Z,100.00
2022-11-09T19:18:40.956Z,100.00
2022-11-09T19:21:35.359Z,100.00
2022-11-09T19:24:02.618Z,100.00
2022-11-09T19:26:29.341Z,100.00
2022-11-09T19:28:56.014Z,100.00
2022-11-09T19:31:24.102Z,100.00
2022-11-09T19:33:54.590Z,100.00
2022-11-09T19:36:32.274Z,100.00
2022-11-09T19:38:59.220Z,100.00
2022-11-09T19:41:26.157Z,100.00
2022-11-09T19:43:55.921Z,100.00
2022-11-09T19:46:23.058Z,100.00
2022-11-09T19:48:49.985Z,100.00
2022-11-09T19:51:18.025Z,100.00
2022-11-09T19:53:59.040Z,100.00
2022-11-09T19:56:27.705Z,100.00
2022-11-09T19:59:00.840Z,100.00
2022-11-09T20:01:28.002Z,100.00
2022-11-09T20:03:56.952Z,100.00
2022-11-09T20:06:24.428Z,100.00
2022-11-09T20:08:52.270Z,100.00
2022-11-09T20:11:39.212Z,100.00
2022-11-09T20:14:06.935Z,100.00
2022-11-09T20:16:34.413Z,100.00
2022-11-09T20:19:02.691Z,100.00
2022-11-09T20:21:29.394Z,100.00
2022-11-09T20:23:56.176Z,100.00
2022-11-09T20:26:23.037Z,100.00
2022-11-09T20:28:51.525Z,100.00
2022-11-09T20:31:19.732Z,100.00
2022-11-09T20:33:46.810Z,100.00
2022-11-09T20:36:13.850Z,100.00
2022-11-09T20:38:41.120Z,100.00
2022-11-09T20:41:11.261Z,100.00
2022-11-09T20:43:38.403Z,100.00
2022-11-09T20:46:07.635Z,100.00
2022-11-09T20:51:22.050Z,100.00
2022-11-09T20:53:50.338Z,100.00
2022-11-09T20:56:18.220Z,100.00
2022-11-09T20:58:45.184Z,100.00
2022-11-09T21:01:20.802Z,100.00
2022-11-09T21:03:49.827Z,100.00
2022-11-09T21:06:16.561Z,100.00
2022-11-09T21:08:54.008Z,100.00
2022-11-09T21:11:23.689Z,100.00
2022-11-09T21:13:51.783Z,100.00
2022-11-09T21:16:19.970Z,100.00
2022-11-09T21:18:46.978Z,100.00
2022-11-09T21:21:16.579Z,100.00
2022-11-09T21:24:02.430Z,100.00
2022-11-09T21:26:48.221Z,100.00
2022-11-09T21:29:39.672Z,100.00
2022-11-09T21:32:07.467Z,100.00
2022-11-09T21:34:36.792Z,100.00
2022-11-09T21:37:04.926Z,100.00
2022-11-09T21:39:32.012Z,100.00
2022-11-09T21:41:58.953Z,100.00
2022-11-09T21:44:31.259Z,100.00
2022-11-09T21:46:58.732Z,100.00
2022-11-09T21:49:25.408Z,100.00
2022-11-09T21:51:52.276Z,100.00
2022-11-09T21:54:19.625Z,100.00
2022-11-09T21:56:48.178Z,100.00
2022-11-09T21:59:14.903Z,100.00
2022-11-09T22:01:41.573Z,100.00
2022-11-09T22:04:09.202Z,100.00
2022-11-09T22:06:40.551Z,100.00
2022-11-09T22:09:12.670Z,100.00
2022-11-09T22:11:58.407Z,100.00
2022-11-09T22:14:43.848Z,100.00
2022-11-09T22:17:10.599Z,100.00
2022-11-09T22:19:56.865Z,100.00
2022-11-09T22:22:23.880Z,100.00
2022-11-09T22:24:50.603Z,100.00
2022-11-09T22:27:17.288Z,100.00
2022-11-09T22:29:44.105Z,100.00
2022-11-09T22:32:10.739Z,100.00
2022-11-09T22:34:37.476Z,100.00
2022-11-09T22:37:04.166Z,100.00
2022-11-09T22:39:30.800Z,100.00
2022-11-09T22:41:57.496Z,100.00
2022-11-09T22:44:24.147Z,100.00
2022-11-09T22:46:50.855Z,100.00
2022-11-09T22:49:19.153Z,100.00
2022-11-09T22:51:45.963Z,100.00
2022-11-09T22:54:12.580Z,100.00
2022-11-09T22:56:39.293Z,100.00
2022-11-09T22:59:06.273Z,100.00
2022-11-09T23:01:33.093Z,100.00
2022-11-09T23:03:59.840Z,100.00
2022-11-09T23:06:26.952Z,100.00
2022-11-09T23:08:53.622Z,100.00
2022-11-09T23:11:22.162Z,100.00
2022-11-09T23:13:51.211Z,100.00
2022-11-09T23:16:18.001Z,100.00
2022-11-09T23:18:54.246Z,100.00
2022-11-09T23:21:35.657Z,100.00
2022-11-09T23:24:05.538Z,100.00
2022-11-09T23:26:33.539Z,100.00
2022-11-09T23:29:00.380Z,100.00
2022-11-09T23:31:27.788Z,100.00
2022-11-09T23:33:58.178Z,100.00
2022-11-09T23:36:26.406Z,100.00
2022-11-09T23:38:53.360Z,100.00
2022-11-09T23:41:20.545Z,100.00
2022-11-09T23:43:49.505Z,100.00
2022-11-09T23:46:18.090Z,100.00
2022-11-09T23:48:44.937Z,100.00
2022-11-09T23:51:11.963Z,100.00
2022-11-09T23:53:39.473Z,100.00
2022-11-09T23:56:08.823Z,100.00
2022-11-09T23:58:36.026Z,100.00
